首页
METAR-TAF:

METAR-TAF

机场 :

摩爾曼斯克, 俄罗斯

纬度: 68-58N, 经度: 033-03E, 海拔: 51米

当前天气观测

该预报发布于40分钟前的23:30 UTC
风速2节,风向西
温度 -23°C
湿度 76%
气压 1013 hPa
能见度10公里或以上
散云层高于1300英尺

METAR: ULMM 172330Z 27001MPS 9999 SCT013 M23/M26 Q1013 R31/390145 NOSIG RMK QFE753

时间: 03:10 (00:10 UTC)

预报

该预报发布于1小时和15分钟前的22:55 UTC
预报有效从18日的 00点(UTC)到 18日的 24点(UTC)
风速6节,风向南转南东
能見度: 6000
散云层高于1100英尺
短暂存在
从 18日的 00点(UTC)到 18日的 07点(UTC)
风速2节,风向多变
能見度: 0400
散云层高于400英尺
多云层高于1100英尺, 积雨云.
小阵雪, 冻雾
短暂存在
从 18日的 07点(UTC)到 18日的 24点(UTC)
风速4节,风向东转东南
能見度: 3100
散云层高于600英尺
多云层高于1100英尺, 积雨云.
小阵雪

TAF: ULMM 172255Z 1800/1824 16003MPS 6000 SCT011 TEMPO 1800/1807 VRB01MPS 0400 -SHSN FZFG SCT004 BKN011CB TEMPO 1807/1824 12002MPS 3100 -SHSN SCT006 BKN011CB

超过4000个机场的气象观测和天气预报(METAR&TAF报告)。

可查询的气象台以黄色和红色小点在地图上表示。

将鼠标移到小点上方,可查看气象台名称。

然后点击查看天气观测和预报。

如需切换地图:点击带黑十字的绿色按钮放大地图;点击带横线的绿色按钮缩小地图;或者点击绿色箭头查看邻近地区的地图。


METAR-TAF: